createdAt,value
2022-08-19T00:01:44.086Z,13.20
2022-08-19T00:04:16.840Z,15.45
2022-08-19T00:06:46.237Z,15.48
2022-08-19T00:09:16.751Z,14.18
2022-08-19T00:11:44.753Z,16.08
2022-08-19T00:14:16.465Z,16.20
2022-08-19T00:16:48.213Z,14.70
2022-08-19T00:19:17.184Z,17.63
2022-08-19T00:21:45.345Z,15.27
2022-08-19T00:24:15.304Z,15.27
2022-08-19T00:26:44.448Z,17.67
2022-08-19T00:29:19.005Z,15.15
2022-08-19T00:31:50.731Z,16.30
2022-08-19T00:34:18.856Z,18.40
2022-08-19T00:36:48.327Z,17.27
2022-08-19T00:39:17.413Z,21.33
2022-08-19T00:41:48.419Z,20.95
2022-08-19T00:44:44.749Z,19.52
2022-08-19T00:47:14.257Z,19.08
2022-08-19T00:49:46.562Z,17.30
2022-08-19T00:52:17.321Z,21.88
2022-08-19T00:54:52.346Z,19.02
2022-08-19T00:57:29.675Z,17.45
2022-08-19T01:00:03.135Z,20.70
2022-08-19T01:02:34.113Z,20.83
2022-08-19T01:05:03.609Z,24.63
2022-08-19T01:07:38.025Z,19.77
2022-08-19T01:10:12.799Z,20.53
2022-08-19T01:12:43.125Z,21.38
2022-08-19T01:15:15.978Z,16.88
2022-08-19T01:17:44.821Z,20.92
2022-08-19T01:20:14.133Z,18.25
2022-08-19T01:22:47.456Z,19.73
2022-08-19T01:25:25.050Z,16.83
2022-08-19T01:27:54.676Z,18.10
2022-08-19T01:30:25.312Z,16.80
2022-08-19T01:32:54.754Z,17.00
2022-08-19T01:35:24.464Z,15.90
2022-08-19T01:38:01.542Z,18.80
2022-08-19T01:40:33.625Z,18.63
2022-08-19T01:43:01.741Z,17.98
2022-08-19T01:45:31.745Z,18.83
2022-08-19T01:48:02.264Z,19.88
2022-08-19T01:50:40.586Z,17.30
2022-08-19T01:53:13.052Z,21.35
2022-08-19T01:55:42.651Z,18.38
2022-08-19T01:58:14.262Z,19.98
2022-08-19T02:00:42.390Z,18.10
2022-08-19T02:03:12.071Z,19.48
2022-08-19T02:05:43.903Z,20.75
2022-08-19T02:08:14.021Z,19.58
2022-08-19T02:10:44.420Z,18.50
2022-08-19T02:13:12.948Z,17.80
2022-08-19T02:15:40.937Z,16.15
2022-08-19T02:18:10.707Z,17.48
2022-08-19T02:20:40.891Z,17.67
2022-08-19T02:23:13.815Z,19.58
2022-08-19T02:25:49.108Z,18.05
2022-08-19T02:28:18.970Z,18.52
2022-08-19T02:30:48.666Z,16.20
2022-08-19T02:33:17.246Z,21.02
2022-08-19T02:35:45.783Z,16.95
2022-08-19T02:38:29.027Z,17.83
2022-08-19T02:41:00.360Z,17.95
2022-08-19T02:43:29.511Z,17.27
2022-08-19T02:46:14.625Z,18.95
2022-08-19T02:48:42.513Z,19.50
2022-08-19T02:51:10.497Z,18.88
2022-08-19T02:53:38.263Z,17.65
2022-08-19T02:56:10.048Z,17.08
2022-08-19T02:58:39.832Z,17.88
2022-08-19T03:01:08.229Z,18.40
2022-08-19T03:03:36.066Z,23.65
2022-08-19T03:06:09.288Z,20.23
2022-08-19T03:08:37.858Z,20.88
2022-08-19T03:11:06.316Z,19.45
2022-08-19T03:13:35.459Z,18.50
2022-08-19T03:16:07.194Z,18.38
2022-08-19T03:18:34.980Z,18.58
2022-08-19T03:21:03.162Z,19.70
2022-08-19T03:23:30.957Z,20.92
2022-08-19T03:26:15.683Z,16.83
2022-08-19T03:28:51.646Z,20.75
2022-08-19T03:31:45.252Z,24.17
2022-08-19T03:34:19.083Z,23.77
2022-08-19T03:36:48.182Z,24.35
2022-08-19T03:39:16.792Z,19.75
2022-08-19T03:41:48.253Z,26.52
2022-08-19T03:44:21.557Z,21.30
2022-08-19T03:46:51.527Z,25.20
2022-08-19T03:49:19.881Z,21.02
2022-08-19T03:51:49.729Z,22.90
2022-08-19T03:54:19.190Z,21.15
2022-08-19T03:56:49.560Z,22.23
2022-08-19T03:59:21.469Z,22.77
2022-08-19T04:01:49.511Z,23.13
2022-08-19T04:04:17.308Z,22.15
2022-08-19T04:06:48.137Z,25.65
2022-08-19T04:09:16.082Z,20.70
2022-08-19T04:11:47.528Z,23.38
2022-08-19T04:14:19.399Z,24.33
2022-08-19T04:16:48.828Z,23.13
2022-08-19T04:19:18.717Z,20.08
2022-08-19T04:21:48.469Z,24.52
2022-08-19T04:24:17.180Z,19.77
2022-08-19T04:26:45.954Z,20.70
2022-08-19T04:29:16.715Z,21.42
2022-08-19T04:31:46.860Z,22.27
2022-08-19T04:34:18.003Z,19.60
2022-08-19T04:36:46.633Z,21.23
2022-08-19T04:39:16.731Z,20.73
2022-08-19T04:42:02.464Z,23.23
2022-08-19T04:44:33.157Z,20.30
2022-08-19T04:47:10.990Z,19.90
2022-08-19T04:49:39.726Z,20.25
2022-08-19T04:52:07.543Z,23.40
2022-08-19T04:54:37.386Z,21.95
2022-08-19T04:57:10.464Z,19.67
2022-08-19T04:59:39.524Z,19.60
2022-08-19T05:02:10.141Z,19.00
2022-08-19T05:04:40.092Z,21.05
2022-08-19T05:07:08.834Z,21.63
2022-08-19T05:09:58.236Z,22.33
2022-08-19T05:12:29.187Z,19.45
2022-08-19T05:14:58.591Z,21.45
2022-08-19T05:17:31.299Z,22.00
2022-08-19T05:20:18.847Z,25.87
2022-08-19T05:22:49.115Z,21.23
2022-08-19T05:25:20.447Z,21.02
2022-08-19T05:27:48.983Z,20.70
2022-08-19T05:30:17.826Z,18.40
2022-08-19T05:32:46.995Z,22.45
2022-08-19T05:35:14.768Z,20.13
2022-08-19T05:37:42.636Z,21.67
2022-08-19T05:40:12.009Z,20.90
2022-08-19T05:42:40.076Z,20.27
2022-08-19T05:45:09.074Z,22.60
2022-08-19T05:47:42.018Z,22.88
2022-08-19T05:50:11.619Z,24.27
2022-08-19T05:52:45.833Z,28.23
2022-08-19T05:55:14.314Z,17.38
2022-08-19T05:57:42.505Z,16.70
2022-08-19T06:00:12.428Z,26.35
2022-08-19T06:02:41.345Z,22.95
2022-08-19T06:05:11.952Z,23.85
2022-08-19T06:07:41.089Z,21.20
2022-08-19T06:10:11.511Z,24.80
2022-08-19T06:12:39.699Z,25.58
2022-08-19T06:15:11.696Z,24.48
2022-08-19T06:17:40.001Z,20.52
2022-08-19T06:20:14.075Z,28.13
2022-08-19T06:22:42.590Z,35.45
2022-08-19T06:25:11.083Z,25.23
2022-08-19T06:27:48.330Z,21.10
2022-08-19T06:30:27.512Z,21.45
2022-08-19T06:32:55.491Z,20.92
2022-08-19T06:35:24.793Z,20.73
2022-08-19T06:37:53.448Z,19.83
2022-08-19T06:40:21.577Z,16.88
2022-08-19T06:42:54.840Z,16.00
2022-08-19T06:45:24.719Z,19.73
2022-08-19T06:47:56.703Z,25.77
2022-08-19T06:50:26.346Z,26.33
2022-08-19T06:52:55.226Z,18.98
2022-08-19T06:55:23.243Z,20.30
2022-08-19T06:57:54.518Z,26.58
2022-08-19T07:00:22.813Z,29.73
2022-08-19T07:02:55.859Z,26.63
2022-08-19T07:05:28.597Z,25.38
2022-08-19T07:08:01.641Z,17.33
2022-08-19T07:10:33.666Z,18.33
2022-08-19T07:13:02.624Z,21.02
2022-08-19T07:15:31.516Z,14.32
2022-08-19T07:17:59.433Z,14.23
2022-08-19T07:20:29.592Z,16.90
2022-08-19T07:22:57.436Z,21.48
2022-08-19T07:25:31.865Z,15.30
2022-08-19T07:28:01.515Z,19.38
2022-08-19T07:30:29.725Z,15.40
2022-08-19T07:32:59.613Z,12.75
2022-08-19T07:35:33.089Z,13.00
2022-08-19T07:38:03.924Z,15.45
2022-08-19T07:40:32.459Z,15.70
2022-08-19T07:43:00.253Z,14.55
2022-08-19T07:45:28.169Z,19.23
2022-08-19T07:47:56.639Z,16.45
2022-08-19T07:50:24.542Z,14.23
2022-08-19T07:52:53.737Z,13.18
2022-08-19T07:55:40.003Z,14.55
2022-08-19T07:58:09.059Z,13.38
2022-08-19T08:00:37.204Z,21.35
2022-08-19T08:03:05.209Z,14.18
2022-08-19T08:05:50.670Z,10.55
2022-08-19T08:08:37.315Z,13.82
2022-08-19T08:11:14.897Z,11.45
2022-08-19T08:13:43.692Z,10.70
2022-08-19T08:16:14.373Z,11.52
2022-08-19T08:18:50.555Z,13.23
2022-08-19T08:21:20.811Z,12.68
2022-08-19T08:23:52.086Z,10.68
2022-08-19T08:26:21.034Z,8.40
2022-08-19T08:28:49.616Z,8.75
2022-08-19T08:31:19.451Z,10.57
2022-08-19T08:33:48.816Z,8.85
2022-08-19T08:36:17.915Z,9.90
2022-08-19T08:38:47.190Z,7.20
2022-08-19T08:41:24.390Z,9.05
2022-08-19T08:43:54.256Z,9.30
2022-08-19T08:46:30.754Z,7.38
2022-08-19T08:49:06.521Z,10.27
2022-08-19T08:51:37.119Z,8.10
2022-08-19T08:54:09.873Z,7.70
2022-08-19T08:56:41.946Z,6.65
2022-08-19T08:59:18.317Z,7.63
2022-08-19T09:01:46.514Z,6.10
2022-08-19T09:04:15.121Z,9.15
2022-08-19T09:06:52.712Z,8.43
2022-08-19T09:09:31.934Z,7.90
2022-08-19T09:12:11.780Z,10.25
2022-08-19T09:14:50.843Z,6.15
2022-08-19T09:17:21.805Z,6.80
2022-08-19T09:19:53.497Z,7.22
2022-08-19T09:22:25.962Z,6.28
2022-08-19T09:24:56.141Z,5.70
2022-08-19T09:27:53.877Z,5.53
2022-08-19T09:30:18.989Z,6.57
2022-08-19T09:32:46.911Z,5.35
2022-08-19T09:35:23.007Z,7.07
2022-08-19T09:37:51.293Z,4.50
2022-08-19T09:40:27.499Z,6.80
2022-08-19T09:43:03.388Z,5.03
2022-08-19T09:45:39.299Z,7.68
2022-08-19T09:48:07.100Z,5.85
2022-08-19T09:50:35.044Z,4.80
2022-08-19T09:53:02.892Z,5.47
2022-08-19T09:55:31.963Z,6.03
2022-08-19T09:58:04.854Z,5.55
2022-08-19T10:00:34.359Z,8.38
2022-08-19T10:03:02.131Z,6.25
2022-08-19T10:05:48.964Z,6.07
2022-08-19T10:08:18.709Z,7.47
2022-08-19T10:10:48.699Z,5.88
2022-08-19T10:13:22.773Z,5.53
2022-08-19T10:15:52.004Z,8.13
2022-08-19T10:18:21.289Z,6.68
2022-08-19T10:20:51.574Z,6.00
2022-08-19T10:23:22.218Z,8.95
2022-08-19T10:25:51.273Z,7.70
2022-08-19T10:28:20.472Z,4.60
2022-08-19T10:30:49.216Z,9.82
2022-08-19T10:33:38.462Z,4.32
2022-08-19T10:36:07.727Z,9.98
2022-08-19T10:38:36.076Z,5.35
2022-08-19T10:41:13.455Z,4.30
2022-08-19T10:43:43.476Z,6.43
2022-08-19T10:46:13.800Z,5.57
2022-08-19T10:48:42.958Z,4.07
2022-08-19T10:51:29.087Z,7.38
2022-08-19T10:53:57.264Z,5.38
2022-08-19T10:56:42.451Z,4.60
2022-08-19T10:59:12.241Z,4.32
2022-08-19T11:01:40.096Z,6.55
2022-08-19T11:04:10.828Z,7.00
2022-08-19T11:06:39.213Z,5.55
2022-08-19T11:09:07.356Z,4.30
2022-08-19T11:11:42.260Z,7.07
2022-08-19T11:14:14.601Z,8.85
2022-08-19T11:16:43.811Z,6.03
2022-08-19T11:19:13.671Z,8.57
2022-08-19T11:21:44.242Z,5.25
2022-08-19T11:24:14.284Z,6.15
2022-08-19T11:26:45.445Z,9.88
2022-08-19T11:29:15.248Z,9.43
2022-08-19T11:31:45.464Z,8.60
2022-08-19T11:34:15.609Z,7.13
2022-08-19T11:36:45.792Z,11.85
2022-08-19T11:39:16.309Z,10.05
2022-08-19T11:41:44.099Z,8.07
2022-08-19T11:44:11.931Z,7.53
2022-08-19T11:46:41.027Z,6.50
2022-08-19T11:49:13.771Z,7.97
2022-08-19T11:51:44.001Z,7.05
2022-08-19T11:54:13.634Z,12.90
2022-08-19T11:56:42.068Z,7.70
2022-08-19T11:59:14.611Z,9.85
2022-08-19T12:01:44.524Z,6.00
2022-08-19T12:04:13.246Z,6.28
2022-08-19T12:06:42.769Z,5.88
2022-08-19T12:09:11.602Z,5.57
2022-08-19T12:11:40.421Z,5.57
2022-08-19T12:14:14.617Z,4.88
2022-08-19T12:16:51.334Z,5.65
2022-08-19T12:19:22.249Z,6.32
2022-08-19T12:21:51.077Z,5.50
2022-08-19T12:24:23.881Z,5.20
2022-08-19T12:26:53.218Z,6.60
2022-08-19T12:29:23.872Z,9.27
2022-08-19T12:31:53.661Z,5.20
2022-08-19T12:34:21.857Z,7.13
2022-08-19T12:36:51.043Z,6.28
2022-08-19T12:39:19.002Z,6.95
2022-08-19T12:41:54.864Z,5.60
2022-08-19T12:44:29.399Z,6.30
2022-08-19T12:47:01.222Z,5.85
2022-08-19T12:49:53.868Z,6.00
2022-08-19T12:52:23.232Z,8.15
2022-08-19T12:54:53.680Z,5.85
2022-08-19T12:57:22.107Z,8.05
2022-08-19T12:59:55.067Z,7.75
2022-08-19T13:02:24.827Z,6.35
2022-08-19T13:04:52.615Z,4.70
2022-08-19T13:07:20.379Z,4.45
2022-08-19T13:09:48.210Z,6.40
2022-08-19T13:12:16.623Z,4.03
2022-08-19T13:14:47.013Z,7.85
2022-08-19T13:17:16.306Z,4.72
2022-08-19T13:19:45.512Z,3.97
2022-08-19T13:22:15.128Z,5.55
2022-08-19T13:24:47.266Z,5.57
2022-08-19T13:27:16.335Z,5.07
2022-08-19T13:30:02.145Z,4.47
2022-08-19T13:32:48.974Z,3.90
2022-08-19T13:35:18.829Z,4.05
2022-08-19T13:37:46.706Z,9.52
2022-08-19T13:40:19.055Z,5.15
2022-08-19T13:42:48.814Z,5.28
2022-08-19T13:45:18.829Z,4.75
2022-08-19T13:47:47.812Z,4.80
2022-08-19T13:50:20.547Z,5.20
2022-08-19T13:52:49.091Z,5.85
2022-08-19T13:55:22.164Z,5.35
2022-08-19T13:57:53.850Z,9.52
2022-08-19T14:00:23.017Z,9.15
2022-08-19T14:02:53.454Z,5.45
2022-08-19T14:05:23.414Z,5.82
2022-08-19T14:07:51.394Z,4.15
2022-08-19T14:10:20.708Z,5.05
2022-08-19T14:12:49.284Z,5.28
2022-08-19T14:15:18.038Z,4.95
2022-08-19T14:17:49.456Z,6.18
2022-08-19T14:20:18.518Z,5.40
2022-08-19T14:22:49.365Z,5.25
2022-08-19T14:25:19.535Z,4.32
2022-08-19T14:27:47.867Z,4.68
2022-08-19T14:30:18.352Z,4.38
2022-08-19T14:32:46.171Z,3.47
2022-08-19T14:35:15.761Z,4.45
2022-08-19T14:37:46.036Z,4.63
2022-08-19T14:40:16.959Z,4.57
2022-08-19T14:42:45.488Z,4.45
2022-08-19T14:45:13.527Z,4.43
2022-08-19T14:47:41.660Z,6.30
2022-08-19T14:50:17.851Z,3.38
2022-08-19T14:52:47.309Z,3.53
2022-08-19T14:55:17.098Z,2.75
2022-08-19T14:57:46.093Z,2.58
2022-08-19T15:00:15.561Z,3.03
2022-08-19T15:02:44.983Z,3.47
2022-08-19T15:05:13.554Z,4.65
2022-08-19T15:07:41.768Z,3.55
2022-08-19T15:10:11.841Z,4.60
2022-08-19T15:12:41.729Z,3.97
2022-08-19T15:15:13.544Z,6.05
2022-08-19T15:17:45.556Z,5.45
2022-08-19T15:20:16.661Z,5.20
2022-08-19T15:22:44.463Z,6.10
2022-08-19T15:25:15.179Z,7.95
2022-08-19T15:27:44.452Z,4.85
2022-08-19T15:30:13.810Z,4.88
2022-08-19T15:32:43.488Z,7.93
2022-08-19T15:35:14.337Z,4.30
2022-08-19T15:37:42.112Z,4.07
2022-08-19T15:40:11.035Z,4.80
2022-08-19T15:42:42.263Z,6.22
2022-08-19T15:45:12.984Z,4.50
2022-08-19T15:47:41.439Z,7.15
2022-08-19T15:50:12.194Z,4.47
2022-08-19T15:52:49.533Z,4.28
2022-08-19T15:55:31.387Z,6.38
2022-08-19T15:58:24.104Z,4.25
2022-08-19T16:01:16.743Z,5.75
2022-08-19T16:04:06.033Z,4.13
2022-08-19T16:06:44.832Z,4.25
2022-08-19T16:09:12.968Z,4.47
2022-08-19T16:11:45.559Z,3.92
2022-08-19T16:14:15.020Z,3.70
2022-08-19T16:16:47.115Z,4.10
2022-08-19T16:19:17.090Z,3.40
2022-08-19T16:21:45.876Z,6.07
2022-08-19T16:24:15.106Z,4.97
2022-08-19T16:26:44.074Z,3.60
2022-08-19T16:29:13.238Z,3.55
2022-08-19T16:31:44.520Z,4.18
2022-08-19T16:34:13.309Z,5.97
2022-08-19T16:36:43.374Z,6.32
2022-08-19T16:39:12.595Z,5.00
2022-08-19T16:41:41.589Z,3.90
2022-08-19T16:44:10.977Z,4.35
2022-08-19T16:46:39.706Z,3.30
2022-08-19T16:49:10.591Z,4.38
2022-08-19T16:51:38.773Z,4.88
2022-08-19T16:54:07.046Z,4.10
2022-08-19T16:56:35.096Z,8.23
2022-08-19T16:59:02.959Z,3.58
2022-08-19T17:01:30.949Z,6.82
2022-08-19T17:03:59.207Z,5.68
2022-08-19T17:06:31.976Z,6.28
2022-08-19T17:09:01.774Z,6.25
2022-08-19T17:11:32.860Z,5.03
2022-08-19T17:14:01.633Z,4.20
2022-08-19T17:16:32.028Z,4.00
2022-08-19T17:19:01.643Z,5.18
2022-08-19T17:21:33.052Z,8.40
2022-08-19T17:24:02.198Z,6.63
2022-08-19T17:26:30.439Z,4.88
2022-08-19T17:28:59.480Z,5.85
2022-08-19T17:31:29.943Z,4.47
2022-08-19T17:33:58.765Z,3.70
2022-08-19T17:36:28.217Z,5.05
2022-08-19T17:38:59.087Z,5.78
2022-08-19T17:41:27.816Z,5.60
2022-08-19T17:43:56.056Z,4.45
2022-08-19T17:46:23.785Z,6.90
2022-08-19T17:48:55.239Z,8.18
2022-08-19T17:51:27.388Z,5.15
2022-08-19T17:53:55.305Z,5.95
2022-08-19T17:56:24.824Z,8.00
2022-08-19T17:59:00.105Z,10.15
2022-08-19T18:01:52.759Z,6.50
2022-08-19T18:04:19.642Z,5.53
2022-08-19T18:06:53.331Z,5.72
2022-08-19T18:09:24.275Z,4.82
2022-08-19T18:11:55.324Z,7.32
2022-08-19T18:14:32.062Z,8.07
2022-08-19T18:17:05.463Z,5.00
2022-08-19T18:19:42.296Z,8.57
2022-08-19T18:22:12.201Z,6.53
2022-08-19T18:24:40.961Z,7.80
2022-08-19T18:27:10.227Z,7.10
2022-08-19T18:29:40.011Z,8.50
2022-08-19T18:32:12.445Z,8.50
2022-08-19T18:34:40.952Z,7.95
2022-08-19T18:37:08.753Z,5.30
2022-08-19T18:39:54.454Z,4.97
2022-08-19T18:45:28.031Z,5.45
2022-08-19T18:48:26.564Z,5.53
2022-08-19T18:50:56.933Z,5.35
2022-08-19T18:53:24.787Z,5.38
2022-08-19T18:55:55.150Z,6.82
2022-08-19T18:58:26.703Z,5.97
2022-08-19T19:00:56.741Z,7.40
2022-08-19T19:03:25.568Z,5.88
2022-08-19T19:05:53.643Z,7.35
2022-08-19T19:08:27.040Z,6.32
2022-08-19T19:10:56.046Z,6.53
2022-08-19T19:13:26.698Z,7.80
2022-08-19T19:15:55.406Z,7.93
2022-08-19T19:18:23.286Z,6.70
2022-08-19T19:20:51.125Z,7.00
2022-08-19T19:23:18.987Z,7.15
2022-08-19T19:25:50.242Z,7.15
2022-08-19T19:28:25.122Z,6.50
2022-08-19T19:30:57.455Z,6.85
2022-08-19T19:33:25.712Z,5.82
2022-08-19T19:35:53.932Z,6.55
2022-08-19T19:38:21.888Z,6.15
2022-08-19T19:40:49.768Z,16.00
2022-08-19T19:43:18.268Z,6.53
2022-08-19T19:45:48.153Z,7.22
2022-08-19T19:48:17.329Z,9.70
2022-08-19T19:50:46.234Z,6.18
2022-08-19T19:53:22.063Z,7.05
2022-08-19T19:55:50.924Z,8.10
2022-08-19T19:58:21.313Z,6.28
2022-08-19T20:00:57.297Z,7.35
2022-08-19T20:03:26.784Z,6.78
2022-08-19T20:05:58.164Z,9.50
2022-08-19T20:08:43.950Z,8.77
2022-08-19T20:13:40.488Z,11.13
2022-08-19T20:16:08.865Z,7.70
2022-08-19T20:18:40.085Z,6.57
2022-08-19T20:21:07.961Z,6.57
2022-08-19T20:23:36.182Z,11.30
2022-08-19T20:26:06.380Z,6.68
2022-08-19T20:28:37.799Z,8.45
2022-08-19T20:31:11.631Z,8.70
2022-08-19T20:33:40.791Z,7.40
2022-08-19T20:36:08.732Z,9.00
2022-08-19T20:38:37.507Z,7.85
2022-08-19T20:41:05.793Z,8.32
2022-08-19T20:43:34.262Z,8.95
2022-08-19T20:46:03.237Z,8.82
2022-08-19T20:48:31.469Z,10.45
2022-08-19T20:51:00.727Z,11.93
2022-08-19T20:53:28.701Z,11.07
2022-08-19T20:55:57.620Z,10.07
2022-08-19T20:58:28.377Z,10.88
2022-08-19T21:00:59.909Z,17.02
2022-08-19T21:03:29.832Z,14.50
2022-08-19T21:05:58.569Z,15.52
2022-08-19T21:08:28.120Z,20.50
2022-08-19T21:10:58.002Z,18.95
2022-08-19T21:13:26.587Z,13.75
2022-08-19T21:15:54.680Z,15.13
2022-08-19T21:18:25.072Z,10.95
2022-08-19T21:20:53.087Z,9.45
2022-08-19T21:23:23.612Z,12.27
2022-08-19T21:25:54.944Z,10.85
2022-08-19T21:28:34.981Z,8.45
2022-08-19T21:31:06.577Z,10.82
2022-08-19T21:33:35.068Z,9.65
2022-08-19T21:36:03.965Z,7.82
2022-08-19T21:38:32.106Z,9.05
2022-08-19T21:41:05.764Z,8.00
2022-08-19T21:43:34.415Z,9.43
2022-08-19T21:46:02.335Z,10.15
2022-08-19T21:48:30.171Z,9.65
2022-08-19T21:50:58.034Z,8.35
2022-08-19T21:53:25.836Z,13.93
2022-08-19T21:56:02.550Z,9.85
2022-08-19T21:58:30.790Z,8.65
2022-08-19T22:00:58.889Z,7.18
2022-08-19T22:03:27.292Z,8.68
2022-08-19T22:05:55.224Z,8.38
2022-08-19T22:08:23.265Z,7.63
2022-08-19T22:10:51.240Z,8.02
2022-08-19T22:13:21.607Z,9.07
2022-08-19T22:15:51.808Z,7.10
2022-08-19T22:18:19.740Z,10.35
2022-08-19T22:20:47.724Z,7.30
2022-08-19T22:23:15.675Z,8.88
2022-08-19T22:25:46.084Z,12.63
2022-08-19T22:28:19.036Z,6.90
2022-08-19T22:30:56.959Z,8.57
2022-08-19T22:33:27.500Z,7.38
2022-08-19T22:35:55.396Z,8.35
2022-08-19T22:38:23.850Z,8.52
2022-08-19T22:40:53.108Z,6.75
2022-08-19T22:43:23.916Z,7.50
2022-08-19T22:45:54.016Z,7.55
2022-08-19T22:48:24.944Z,10.45
2022-08-19T22:51:11.061Z,8.57
2022-08-19T22:53:41.440Z,7.80
2022-08-19T22:56:15.071Z,7.68
2022-08-19T22:58:43.715Z,10.00
2022-08-19T23:01:13.020Z,6.88
2022-08-19T23:03:56.506Z,7.07
2022-08-19T23:06:33.083Z,9.32
2022-08-19T23:09:04.741Z,15.43
2022-08-19T23:11:35.446Z,7.15
2022-08-19T23:14:03.867Z,10.27
2022-08-19T23:16:34.556Z,10.65
2022-08-19T23:19:04.651Z,9.18
2022-08-19T23:21:32.463Z,7.93
2022-08-19T23:24:00.269Z,10.18
2022-08-19T23:26:30.715Z,10.68
2022-08-19T23:29:18.884Z,11.95
2022-08-19T23:31:49.708Z,11.35
2022-08-19T23:34:18.963Z,10.27
2022-08-19T23:36:46.708Z,8.18
2022-08-19T23:39:14.453Z,11.57
2022-08-19T23:41:42.219Z,8.20
2022-08-19T23:44:14.726Z,9.30
2022-08-19T23:46:55.370Z,8.50
2022-08-19T23:49:26.140Z,8.00
2022-08-19T23:51:55.604Z,8.23
2022-08-19T23:54:23.552Z,9.75
2022-08-19T23:57:14.173Z,9.30
2022-08-19T23:59:44.935Z,9.32
